METAR AND TAF INFORMATION
METAR FOR LFLC
ADDS - METARS form results

(2105 UTC 21 March 2019)
Data provider http://aviationweather.gov/metar/data/
 
METAR text: LFLC 212100Z AUTO 24006KT CAVOK 06/M02 Q1029 NOSIG
Conditions at: LFLC (CLERMONT/AULNAT , FR) observed 2100 UTC 21 March 2019
Temperature: 6.0°C (43°F)
Dewpoint: -2.0°C (28°F) [RH = 56%]
Pressure (altimeter): 30.38 inches Hg (1029.0 mb)
Winds: from the WSW (240 degrees) at 7 MPH (6 knots; 3.1 m/s)
Visibility: 6 or more miles (10+ km)
Ceiling: ceiling and visibility are OK
Clouds: unknown
Weather: no significant weather observed at this time

METAR text: LFLC 212030Z AUTO 23005KT CAVOK 05/M02 Q1029 NOSIG
Conditions at: LFLC (CLERMONT/AULNAT , FR) observed 2030 UTC 21 March 2019
Temperature: 5.0°C (41°F)
Dewpoint: -2.0°C (28°F) [RH = 60%]
Pressure (altimeter): 30.38 inches Hg (1029.0 mb)
Winds: from the SW (230 degrees) at 6 MPH (5 knots; 2.6 m/s)
Visibility: 6 or more miles (10+ km)
Ceiling: ceiling and visibility are OK
Clouds: unknown
Weather: no significant weather observed at this time

Forecast for: LFLC (CLERMONT/AULNAT , FR)
Text: TAF LFLC 212000Z 2121/2221 VRB03KT CAVOK
Forecast period: 2100 UTC 21 March 2019 to 2100 UTC 22 March 2019
Forecast type: FROM: standard forecast or significant change
Winds: variable direction winds at 3 MPH (3 knots; 1.5 m/s)
Visibility: 6 or more miles 10+ km)
Ceiling: unknown
Clouds: missing
Weather: NSW  (no significant weather)

 AIRPORT MAP

 RUNWAY INFORMATION
Runway 01 Runway length 2313 ft Runway width 197 ft
Runway elevation 1092 ft Runway displaced threshold 0 ft Runway heading 8
Runway 19 Runway length 2313 ft Runway width 197 ft
Runway elevation 1083 ft Runway displaced threshold 0 ft Runway heading 188
Runway 08 Runway length 9885 ft Runway width 148 ft
Runway elevation 1089 ft Runway displaced threshold 0 ft Runway heading 82
Runway 26 Runway length 9885 ft Runway width 148 ft
Runway elevation 1057 ft Runway displaced threshold 476 ft Runway heading 262
Runway 08L Runway length 2953 ft Runway width 161 ft
Runway elevation 1072 ft Runway displaced threshold 0 ft Runway heading 82
Runway 26R Runway length 2953 ft Runway width 161 ft
Runway elevation 1063 ft Runway displaced threshold 0 ft Runway heading 262

 AIRPORT FREQUENCIES
Type APP Name CLERMONT A Frequency 119.375 MHZ
Type APP Name CLERMONT A Frequency 122.225 MHZ
Type ATIS Name CLERMONT A Frequency 136.4 MHZ
Type FIS Name CLERMONT I Frequency 122.225 MHZ
Type GND Name CLERMONT G Frequency 121.95 MHZ
Type TWR Name CLERMONT T Frequency 118.625 MHZ

 AIRPORT NEAR NAVIGATION AIDS
Type VOR-DME Name Clermont Frequency 114350 KHZ



Powered by Virtual Airlines Manager [v2.6.2]